createdAt,value
2024-05-09T00:01:31.720Z,84.7
2024-05-09T00:04:31.746Z,85.1
2024-05-09T00:07:31.722Z,85.3
2024-05-09T00:10:35.188Z,85.8
2024-05-09T00:13:31.732Z,86.1
2024-05-09T00:16:31.745Z,86.3
2024-05-09T00:19:31.865Z,86.3
2024-05-09T00:22:31.751Z,86.8
2024-05-09T00:25:31.752Z,87.1
2024-05-09T00:28:31.746Z,87.2
2024-05-09T00:31:31.765Z,87.6
2024-05-09T00:34:31.830Z,87.6
2024-05-09T00:37:31.764Z,87.4
2024-05-09T00:40:37.573Z,87.5
2024-05-09T00:43:31.768Z,87.6
2024-05-09T00:46:31.799Z,87.7
2024-05-09T00:49:31.856Z,87.9
2024-05-09T00:52:31.777Z,88.2
2024-05-09T00:55:31.782Z,88.3
2024-05-09T00:58:31.789Z,88.3
2024-05-09T01:01:31.796Z,88.4
2024-05-09T01:04:31.842Z,88.7
2024-05-09T01:07:31.803Z,89
2024-05-09T01:10:33.956Z,89.2
2024-05-09T01:13:31.810Z,89.4
2024-05-09T01:16:31.815Z,89.8
2024-05-09T01:19:31.951Z,90
2024-05-09T01:22:31.811Z,90.1
2024-05-09T01:25:31.817Z,90.2
2024-05-09T01:28:31.829Z,90.3
2024-05-09T01:31:31.865Z,90.4
2024-05-09T01:34:31.821Z,90.3
2024-05-09T01:37:31.839Z,90.5
2024-05-09T01:40:36.286Z,90.8
2024-05-09T01:43:31.848Z,90.9
2024-05-09T01:46:31.854Z,91
2024-05-09T01:49:31.928Z,91.3
2024-05-09T01:52:31.854Z,91.6
2024-05-09T01:55:31.849Z,91.7
2024-05-09T01:58:31.863Z,91.4
2024-05-09T02:01:54.770Z,91.1
2024-05-09T02:04:31.981Z,91.1
2024-05-09T02:07:31.862Z,91.3
2024-05-09T02:10:32.697Z,91.6
2024-05-09T02:13:32.003Z,91.7
2024-05-09T02:16:31.898Z,91.9
2024-05-09T02:19:32.050Z,92.2
2024-05-09T02:22:31.892Z,92.6
2024-05-09T02:25:32.106Z,92.7
2024-05-09T02:28:31.911Z,92.6
2024-05-09T02:31:31.928Z,92.6
2024-05-09T02:34:31.947Z,92.8
2024-05-09T02:37:31.944Z,93.1
2024-05-09T02:40:36.038Z,93.2
2024-05-09T02:43:31.928Z,93.1
2024-05-09T02:46:31.935Z,93
2024-05-09T02:49:31.990Z,93.2
2024-05-09T02:52:31.933Z,93.4
2024-05-09T02:55:31.944Z,93.6
2024-05-09T02:58:31.961Z,93.8
2024-05-09T03:01:32.024Z,94.1
2024-05-09T03:04:32.025Z,94.4
2024-05-09T03:07:31.972Z,94.4
2024-05-09T03:10:35.194Z,94.3
2024-05-09T03:13:31.975Z,94.1
2024-05-09T03:16:31.979Z,94
2024-05-09T03:19:32.038Z,93.9
2024-05-09T03:22:31.992Z,93.8
2024-05-09T03:25:31.996Z,93.7
2024-05-09T03:28:32.003Z,93.6
2024-05-09T03:31:31.998Z,93.5
2024-05-09T03:34:32.010Z,93.6
2024-05-09T03:37:32.012Z,93.5
2024-05-09T03:40:32.015Z,93.4
2024-05-09T03:43:32.017Z,93.5
2024-05-09T03:46:32.032Z,93.5
2024-05-09T03:49:32.118Z,93.5
2024-05-09T03:52:32.024Z,93.7
2024-05-09T03:55:32.221Z,93.9
2024-05-09T03:58:32.056Z,94.1
2024-05-09T04:01:32.193Z,94.2
2024-05-09T04:04:32.219Z,94.2
2024-05-09T04:07:32.051Z,94.2
2024-05-09T04:10:33.267Z,94.2
2024-05-09T04:13:32.076Z,94.1
2024-05-09T04:16:32.080Z,94
2024-05-09T04:19:32.206Z,93.8
2024-05-09T04:22:32.093Z,93.6
2024-05-09T04:25:32.102Z,93.3
2024-05-09T04:28:32.109Z,93
2024-05-09T04:31:32.096Z,92.8
2024-05-09T04:34:32.202Z,92.6
2024-05-09T04:37:32.115Z,92.5
2024-05-09T04:40:34.304Z,92.3
2024-05-09T04:43:32.143Z,92.1
2024-05-09T04:46:32.141Z,91.8
2024-05-09T04:49:32.161Z,91.6
2024-05-09T04:52:32.127Z,91.4
2024-05-09T04:55:32.153Z,91.3
2024-05-09T04:58:32.145Z,91.1
2024-05-09T05:01:32.192Z,90.8
2024-05-09T05:04:32.181Z,90.2
2024-05-09T05:07:32.174Z,89.7
2024-05-09T05:10:35.410Z,89.1
2024-05-09T05:13:32.183Z,88.8
2024-05-09T05:16:32.181Z,88.2
2024-05-09T05:19:32.281Z,87.4
2024-05-09T05:22:32.198Z,86.6
2024-05-09T05:25:32.211Z,86
2024-05-09T05:28:32.187Z,85.1
2024-05-09T05:31:32.206Z,84.6
2024-05-09T05:34:32.213Z,84.1
2024-05-09T05:37:32.218Z,84
2024-05-09T05:40:35.723Z,83
2024-05-09T05:43:32.211Z,81.1
2024-05-09T05:46:32.243Z,80
2024-05-09T05:49:32.320Z,77.2
2024-05-09T05:52:32.240Z,74.5
2024-05-09T05:55:32.245Z,71.6
2024-05-09T05:58:32.245Z,69.4
2024-05-09T06:01:32.283Z,67.9
2024-05-09T06:04:32.282Z,66.3
2024-05-09T06:07:32.243Z,64.9
2024-05-09T06:10:36.679Z,63.6
2024-05-09T06:13:32.249Z,62.1
2024-05-09T06:16:32.265Z,60.9
2024-05-09T06:19:32.335Z,60.7
2024-05-09T06:22:32.258Z,60.2
2024-05-09T06:25:32.393Z,58.9
2024-05-09T06:28:32.266Z,57.8
2024-05-09T06:31:32.284Z,57.1
2024-05-09T06:34:32.404Z,56
2024-05-09T06:37:32.393Z,56.2
2024-05-09T06:40:37.008Z,55.1
2024-05-09T06:43:32.321Z,55.9
2024-05-09T06:46:32.312Z,55.2
2024-05-09T06:49:32.363Z,53.8
2024-05-09T06:52:32.328Z,53.7
2024-05-09T06:55:32.328Z,52.7
2024-05-09T06:58:32.337Z,51.7
2024-05-09T07:01:32.403Z,52
2024-05-09T07:04:32.477Z,51.4
2024-05-09T07:07:32.375Z,50.7
2024-05-09T07:10:34.525Z,49.9
2024-05-09T07:13:32.375Z,50.3
2024-05-09T07:16:32.382Z,49.3
2024-05-09T07:19:32.449Z,48.4
2024-05-09T07:22:32.384Z,48.5
2024-05-09T07:25:32.454Z,49.4
2024-05-09T07:28:32.396Z,49.1
2024-05-09T07:31:32.398Z,48.9
2024-05-09T07:34:32.477Z,47.1
2024-05-09T07:37:32.407Z,44.9
2024-05-09T07:40:35.050Z,44.5
2024-05-09T07:43:32.446Z,44.8
2024-05-09T07:53:14.325Z,44.3
2024-05-09T07:55:32.597Z,44.1
2024-05-09T07:58:32.434Z,44
2024-05-09T08:01:32.490Z,42.9
2024-05-09T08:04:32.531Z,43.1
2024-05-09T08:07:32.435Z,42.5
2024-05-09T08:10:32.455Z,42.5
2024-05-09T08:13:32.448Z,41.3
2024-05-09T08:16:32.452Z,41.3
2024-05-09T08:19:32.461Z,40
2024-05-09T08:22:32.459Z,38.7
2024-05-09T08:25:32.459Z,37.4
2024-05-09T08:28:32.448Z,37.9
2024-05-09T08:31:32.506Z,36.9
2024-05-09T08:34:32.534Z,37
2024-05-09T08:37:34.983Z,37.4
2024-05-09T08:40:34.805Z,36.6
2024-05-09T08:43:32.460Z,36.1
2024-05-09T08:46:32.478Z,36.3
2024-05-09T08:49:32.521Z,37.5
2024-05-09T08:52:32.462Z,36.8
2024-05-09T08:55:32.479Z,35.9
2024-05-09T08:58:32.474Z,35
2024-05-09T09:01:32.595Z,34.9
2024-05-09T09:04:32.543Z,35.5
2024-05-09T09:07:32.483Z,34.9
2024-05-09T09:10:33.154Z,35
2024-05-09T09:13:32.466Z,35.8
2024-05-09T09:16:32.644Z,35.7
2024-05-09T09:19:32.536Z,35.7
2024-05-09T09:22:32.482Z,35.5
2024-05-09T09:25:32.485Z,36.1
2024-05-09T09:28:32.478Z,36.2
2024-05-09T09:31:32.526Z,35.4
2024-05-09T09:34:32.625Z,37.4
2024-05-09T09:37:32.489Z,37
2024-05-09T09:40:33.818Z,35.8
2024-05-09T09:43:32.480Z,36.6
2024-05-09T09:46:32.510Z,36
2024-05-09T09:49:32.509Z,36
2024-05-09T09:52:32.581Z,36
2024-05-09T09:55:32.495Z,36.3
2024-05-09T09:58:32.508Z,37.2
2024-05-09T10:01:32.514Z,36.1
2024-05-09T10:04:32.518Z,36.3
2024-05-09T10:07:32.493Z,35.7
2024-05-09T10:10:33.019Z,36
2024-05-09T10:13:32.585Z,36
2024-05-09T10:16:32.567Z,33.7
2024-05-09T10:19:32.622Z,35
2024-05-09T10:22:32.511Z,35
2024-05-09T10:25:32.552Z,35.1
2024-05-09T10:28:32.528Z,35.3
2024-05-09T10:31:32.592Z,34.8
2024-05-09T10:34:32.639Z,35.1
2024-05-09T10:37:32.612Z,35.4
2024-05-09T10:40:32.608Z,35.2
2024-05-09T10:43:32.510Z,35
2024-05-09T10:46:32.519Z,35.4
2024-05-09T10:49:32.563Z,35.5
2024-05-09T10:52:32.537Z,35.1
2024-05-09T10:55:32.584Z,34.5
2024-05-09T10:58:32.534Z,35.5
2024-05-09T11:01:32.642Z,35.6
2024-05-09T11:04:32.568Z,35.5
2024-05-09T11:07:32.579Z,36.3
2024-05-09T11:10:34.016Z,35.6
2024-05-09T11:13:32.534Z,36.9
2024-05-09T11:16:32.552Z,35.6
2024-05-09T11:19:32.579Z,35.7
2024-05-09T11:22:32.540Z,35.9
2024-05-09T11:25:32.535Z,35.6
2024-05-09T11:28:32.551Z,36.4
2024-05-09T11:31:32.755Z,35.9
2024-05-09T11:34:32.561Z,35.1
2024-05-09T11:37:34.087Z,36.4
2024-05-09T11:40:34.140Z,36.6
2024-05-09T11:43:32.635Z,35.6
2024-05-09T11:46:32.531Z,35.8
2024-05-09T11:49:32.594Z,35.6
2024-05-09T11:52:32.550Z,35.5
2024-05-09T11:55:32.577Z,34.7
2024-05-09T11:58:32.550Z,35.8
2024-05-09T12:01:32.639Z,36.2
2024-05-09T12:04:32.679Z,35.5
2024-05-09T12:07:32.558Z,36.5
2024-05-09T12:10:34.272Z,36.3
2024-05-09T12:13:32.579Z,36.1
2024-05-09T12:16:32.696Z,36.1
2024-05-09T12:19:32.623Z,35.6
2024-05-09T12:22:32.576Z,34.9
2024-05-09T12:25:32.579Z,35.7
2024-05-09T12:28:32.590Z,35.7
2024-05-09T12:31:32.639Z,36.9
2024-05-09T12:34:32.598Z,36.2
2024-05-09T12:37:32.569Z,36.4
2024-05-09T12:40:35.071Z,36
2024-05-09T12:43:32.580Z,36.2
2024-05-09T12:46:32.621Z,36.4
2024-05-09T12:49:32.709Z,36.6
2024-05-09T12:52:32.569Z,36.9
2024-05-09T12:55:37.105Z,38.3
2024-05-09T12:58:32.588Z,39
2024-05-09T13:01:32.650Z,38.8
2024-05-09T13:04:32.633Z,38.5
2024-05-09T13:07:32.583Z,39.7
2024-05-09T13:10:33.244Z,37.9
2024-05-09T13:13:32.585Z,36.7
2024-05-09T13:16:32.752Z,36.5
2024-05-09T13:19:32.618Z,36.3
2024-05-09T13:22:32.604Z,36.8
2024-05-09T13:25:32.598Z,36.6
2024-05-09T13:28:32.697Z,36.3
2024-05-09T13:31:32.693Z,36
2024-05-09T13:34:32.655Z,36.2
2024-05-09T13:37:32.610Z,36.4
2024-05-09T13:40:33.938Z,37
2024-05-09T13:43:32.662Z,36.7
2024-05-09T13:46:32.626Z,36.4
2024-05-09T13:49:32.711Z,36.2
2024-05-09T13:52:32.615Z,37.1
2024-05-09T13:55:32.629Z,37
2024-05-09T13:58:32.636Z,35.8
2024-05-09T14:01:32.722Z,36.8
2024-05-09T14:04:32.709Z,36.4
2024-05-09T14:07:32.633Z,36.2
2024-05-09T14:10:32.875Z,35.2
2024-05-09T14:13:32.692Z,36.1
2024-05-09T14:16:32.747Z,35.7
2024-05-09T14:19:32.639Z,37
2024-05-09T14:22:32.656Z,37.1
2024-05-09T14:25:33.644Z,36.9
2024-05-09T14:28:32.681Z,36.6
2024-05-09T14:31:33.798Z,36.5
2024-05-09T14:34:32.702Z,36.8
2024-05-09T14:37:34.154Z,36.6
2024-05-09T14:40:38.728Z,37.3
2024-05-09T14:43:32.689Z,37.5
2024-05-09T14:46:32.673Z,38.1
2024-05-09T14:49:32.666Z,37.5
2024-05-09T14:52:32.649Z,38.3
2024-05-09T14:55:32.689Z,37.5
2024-05-09T14:58:32.672Z,37.5
2024-05-09T15:01:32.748Z,36.8
2024-05-09T15:04:32.736Z,37.4
2024-05-09T15:07:32.671Z,37.5
2024-05-09T15:10:34.848Z,38.1
2024-05-09T15:13:32.821Z,38.1
2024-05-09T15:16:32.704Z,38.3
2024-05-09T15:19:32.835Z,38.6
2024-05-09T15:22:32.694Z,40.6
2024-05-09T15:25:32.694Z,38.9
2024-05-09T15:28:32.732Z,39.2
2024-05-09T15:31:32.769Z,39.9
2024-05-09T15:34:32.840Z,39.9
2024-05-09T15:37:32.712Z,40.7
2024-05-09T15:40:37.482Z,41.5
2024-05-09T15:43:32.802Z,39.5
2024-05-09T15:46:32.732Z,40.2
2024-05-09T15:49:32.899Z,39.9
2024-05-09T15:52:32.702Z,39.4
2024-05-09T15:55:32.717Z,39.2
2024-05-09T15:58:32.707Z,39.3
2024-05-09T16:01:32.874Z,39.1
2024-05-09T16:04:32.911Z,38.8
2024-05-09T16:07:32.719Z,39.5
2024-05-09T16:10:33.807Z,39.7
2024-05-09T16:13:32.771Z,39.9
2024-05-09T16:16:32.766Z,40.5
2024-05-09T16:19:32.737Z,40.4
2024-05-09T16:22:32.734Z,40.8
2024-05-09T16:25:32.769Z,42.2
2024-05-09T16:28:32.858Z,42.2
2024-05-09T16:31:32.750Z,42.8
2024-05-09T16:34:32.798Z,42.8
2024-05-09T16:37:32.760Z,43.5
2024-05-09T16:40:36.839Z,43.4
2024-05-09T16:43:32.785Z,43.5
2024-05-09T16:46:32.764Z,42.5
2024-05-09T16:49:32.743Z,42.9
2024-05-09T16:52:32.759Z,43.5
2024-05-09T16:55:32.903Z,43.5
2024-05-09T16:58:32.788Z,43.2
2024-05-09T17:01:32.830Z,43.4
2024-05-09T17:04:32.869Z,44.7
2024-05-09T17:07:32.778Z,45.3
2024-05-09T17:10:34.259Z,44.8
2024-05-09T17:13:32.794Z,44.5
2024-05-09T17:16:32.839Z,44.2
2024-05-09T17:19:32.826Z,44.6
2024-05-09T17:22:32.794Z,43.9
2024-05-09T17:25:32.777Z,43.9
2024-05-09T17:28:32.818Z,43
2024-05-09T17:31:32.893Z,42.4
2024-05-09T17:34:32.964Z,42.4
2024-05-09T17:37:32.809Z,42.6
2024-05-09T17:40:34.824Z,42.3
2024-05-09T17:43:32.897Z,43.3
2024-05-09T17:46:32.904Z,43.2
2024-05-09T17:49:32.956Z,43.7
2024-05-09T17:52:32.805Z,43.7
2024-05-09T17:55:32.963Z,43.6
2024-05-09T17:58:32.838Z,44
2024-05-09T18:01:32.880Z,44.6
2024-05-09T18:04:33.572Z,45.1
2024-05-09T18:07:32.820Z,46.1
2024-05-09T18:10:35.612Z,47.3
2024-05-09T18:13:32.829Z,49.3
2024-05-09T18:16:32.884Z,51.2
2024-05-09T18:19:33.019Z,52
2024-05-09T18:22:32.846Z,52.6
2024-05-09T18:25:32.844Z,53.2
2024-05-09T18:28:32.899Z,53
2024-05-09T18:31:32.941Z,53.3
2024-05-09T18:34:32.937Z,52.5
2024-05-09T18:37:32.867Z,52.8
2024-05-09T18:40:34.976Z,52.6
2024-05-09T18:43:37.962Z,52.1
2024-05-09T18:46:32.890Z,52.2
2024-05-09T18:49:32.956Z,52.1
2024-05-09T18:52:32.879Z,52.3
2024-05-09T18:55:32.964Z,52.5
2024-05-09T18:58:32.896Z,52.5
2024-05-09T19:01:32.998Z,52.8
2024-05-09T19:04:32.982Z,53.8
2024-05-09T19:07:32.871Z,54.1
2024-05-09T19:10:34.132Z,54.5
2024-05-09T19:13:33.043Z,54.8
2024-05-09T19:16:32.896Z,54.6
2024-05-09T19:19:32.986Z,54.6
2024-05-09T19:22:32.912Z,54.4
2024-05-09T19:25:32.917Z,54.7
2024-05-09T19:28:32.938Z,55.4
2024-05-09T19:31:32.936Z,55.9
2024-05-09T19:34:32.923Z,58.1
2024-05-09T19:37:32.917Z,59.5
2024-05-09T19:40:33.864Z,59.7
2024-05-09T19:43:35.812Z,60.1
2024-05-09T19:46:32.943Z,60.4
2024-05-09T19:49:33.116Z,60.8
2024-05-09T19:52:32.926Z,61.3
2024-05-09T19:55:32.923Z,62.1
2024-05-09T19:58:33.004Z,62.4
2024-05-09T20:01:33.048Z,63
2024-05-09T20:04:33.139Z,63.4
2024-05-09T20:07:35.092Z,63.8
2024-05-09T20:10:34.255Z,63.4
2024-05-09T20:13:33.017Z,62.6
2024-05-09T20:16:33.086Z,62.1
2024-05-09T20:19:33.045Z,62.8
2024-05-09T20:22:32.985Z,64.7
2024-05-09T20:25:33.063Z,65.1
2024-05-09T20:28:33.012Z,65.5
2024-05-09T20:31:33.039Z,65.2
2024-05-09T20:34:33.012Z,65
2024-05-09T20:37:33.002Z,64.7
2024-05-09T20:40:35.354Z,64.9
2024-05-09T20:43:33.071Z,64.8
2024-05-09T20:46:33.034Z,65.3
2024-05-09T20:49:33.086Z,65.6
2024-05-09T20:52:33.021Z,66
2024-05-09T20:55:33.017Z,66.4
2024-05-09T20:58:33.095Z,66.8
2024-05-09T21:01:33.063Z,66.9
2024-05-09T21:04:33.119Z,67
2024-05-09T21:07:33.049Z,67
2024-05-09T21:10:33.894Z,66.8
2024-05-09T21:13:33.092Z,66.8
2024-05-09T21:16:33.180Z,66.9
2024-05-09T21:19:33.061Z,67.1
2024-05-09T21:22:33.090Z,67.4
2024-05-09T21:25:33.109Z,67.4
2024-05-09T21:28:33.143Z,67.9
2024-05-09T21:31:33.146Z,67.7
2024-05-09T21:34:33.150Z,67.8
2024-05-09T21:37:33.111Z,68
2024-05-09T21:40:34.360Z,67.9
2024-05-09T21:43:33.187Z,68
2024-05-09T21:46:33.230Z,67.8
2024-05-09T21:49:33.288Z,68
2024-05-09T21:52:33.152Z,67.9
2024-05-09T21:55:33.182Z,67.9
2024-05-09T21:58:33.242Z,68.4
2024-05-09T22:01:33.355Z,68.5
2024-05-09T22:04:33.269Z,68.7
2024-05-09T22:07:33.213Z,69.2
2024-05-09T22:10:34.620Z,70
2024-05-09T22:13:33.234Z,69.9
2024-05-09T22:16:33.266Z,70.2
2024-05-09T22:19:33.307Z,70.9
2024-05-09T22:22:33.224Z,70.7
2024-05-09T22:25:33.620Z,70.7
2024-05-09T22:28:33.320Z,70.8
2024-05-09T22:31:33.327Z,70.9
2024-05-09T22:34:33.295Z,71.1
2024-05-09T22:37:33.263Z,71.4
2024-05-09T22:40:38.632Z,71.5
2024-05-09T22:43:33.291Z,71.8
2024-05-09T22:46:33.368Z,71.7
2024-05-09T22:49:33.340Z,72
2024-05-09T22:52:33.285Z,72.2
2024-05-09T22:55:33.314Z,72.4
2024-05-09T22:58:33.348Z,72.8
2024-05-09T23:01:33.459Z,73.1
2024-05-09T23:04:33.335Z,73.3
2024-05-09T23:07:33.384Z,73.5
2024-05-09T23:10:35.505Z,73.9
2024-05-09T23:13:33.342Z,74.2
2024-05-09T23:16:33.327Z,74.6
2024-05-09T23:19:33.324Z,74.5
2024-05-09T23:22:33.325Z,74.8
2024-05-09T23:25:33.331Z,75.1
2024-05-09T23:28:33.328Z,75.1
2024-05-09T23:31:33.334Z,75.1
2024-05-09T23:34:33.320Z,75.1
2024-05-09T23:37:33.306Z,75.5
2024-05-09T23:40:37.108Z,75.4
2024-05-09T23:43:33.378Z,75.6
2024-05-09T23:46:33.340Z,75.7
2024-05-09T23:49:33.411Z,75.7
2024-05-09T23:52:33.317Z,75.8
2024-05-09T23:55:33.313Z,75.9
2024-05-09T23:58:33.378Z,76.1
